sensor_id;sensor_type;location;lat;lon;timestamp;pressure;altitude;pressure_sealevel;temperature;humidity
36788;BME280;22738;45.560;9.434;2022-09-03T00:02:21;99709.59;;;22.79;100.00
36788;BME280;22738;45.560;9.434;2022-09-03T00:09:14;99705.47;;;22.77;100.00
36788;BME280;22738;45.560;9.434;2022-09-03T00:16:02;99717.84;;;22.61;100.00
36788;BME280;22738;45.560;9.434;2022-09-03T00:22:53;99723.66;;;22.26;100.00
36788;BME280;22738;45.560;9.434;2022-09-03T00:29:42;99720.09;;;22.19;100.00
36788;BME280;22738;45.560;9.434;2022-09-03T00:36:38;99721.50;;;21.99;100.00
36788;BME280;22738;45.560;9.434;2022-09-03T00:50:14;99735.94;;;21.88;100.00
36788;BME280;22738;45.560;9.434;2022-09-03T01:39:00;99785.00;;;21.59;100.00
36788;BME280;22738;45.560;9.434;2022-09-03T01:45:58;99777.09;;;21.51;100.00
36788;BME280;22738;45.560;9.434;2022-09-03T01:52:51;99789.66;;;21.49;100.00
36788;BME280;22738;45.560;9.434;2022-09-03T01:59:51;99781.72;;;21.49;100.00
36788;BME280;22738;45.560;9.434;2022-09-03T02:06:35;99788.97;;;21.47;100.00
36788;BME280;22738;45.560;9.434;2022-09-03T02:19:57;99757.81;;;21.42;100.00
36788;BME280;22738;45.560;9.434;2022-09-03T02:26:39;99756.50;;;21.46;100.00
36788;BME280;22738;45.560;9.434;2022-09-03T02:33:21;99770.22;;;21.42;100.00
36788;BME280;22738;45.560;9.434;2022-09-03T02:40:02;99795.56;;;21.43;100.00
36788;BME280;22738;45.560;9.434;2022-09-03T02:46:59;99769.56;;;21.40;100.00
36788;BME280;22738;45.560;9.434;2022-09-03T02:53:41;99770.72;;;21.29;100.00
36788;BME280;22738;45.560;9.434;2022-09-03T03:00:23;99761.81;;;21.22;100.00
36788;BME280;22738;45.560;9.434;2022-09-03T03:07:06;99765.78;;;21.18;100.00
36788;BME280;22738;45.560;9.434;2022-09-03T03:13:47;99758.53;;;21.20;100.00
36788;BME280;22738;45.560;9.434;2022-09-03T03:20:28;99754.09;;;21.20;100.00
36788;BME280;22738;45.560;9.434;2022-09-03T03:27:09;99748.13;;;21.26;100.00
36788;BME280;22738;45.560;9.434;2022-09-03T03:33:52;99743.38;;;21.30;100.00
36788;BME280;22738;45.560;9.434;2022-09-03T03:40:34;99742.84;;;21.35;100.00
36788;BME280;22738;45.560;9.434;2022-09-03T03:47:16;99732.13;;;21.44;100.00
36788;BME280;22738;45.560;9.434;2022-09-03T03:53:58;99736.09;;;21.32;100.00
36788;BME280;22738;45.560;9.434;2022-09-03T04:00:39;99727.03;;;21.26;100.00
36788;BME280;22738;45.560;9.434;2022-09-03T04:07:22;99724.91;;;21.22;100.00
36788;BME280;22738;45.560;9.434;2022-09-03T04:14:03;99723.75;;;21.24;100.00
36788;BME280;22738;45.560;9.434;2022-09-03T04:20:44;99726.75;;;21.21;100.00
36788;BME280;22738;45.560;9.434;2022-09-03T04:27:25;99720.78;;;21.19;100.00
36788;BME280;22738;45.560;9.434;2022-09-03T04:34:06;99718.34;;;21.18;100.00
36788;BME280;22738;45.560;9.434;2022-09-03T04:40:51;99721.13;;;21.24;100.00
36788;BME280;22738;45.560;9.434;2022-09-03T04:47:32;99717.47;;;21.33;100.00
36788;BME280;22738;45.560;9.434;2022-09-03T04:54:14;99726.38;;;21.33;100.00
36788;BME280;22738;45.560;9.434;2022-09-03T05:00:55;99727.69;;;21.37;100.00
36788;BME280;22738;45.560;9.434;2022-09-03T05:07:37;99729.00;;;21.41;100.00
36788;BME280;22738;45.560;9.434;2022-09-03T05:14:18;99734.91;;;21.43;100.00
36788;BME280;22738;45.560;9.434;2022-09-03T05:21:01;99730.28;;;21.45;100.00
36788;BME280;22738;45.560;9.434;2022-09-03T05:27:42;99724.88;;;21.38;100.00
36788;BME280;22738;45.560;9.434;2022-09-03T05:34:23;99721.13;;;21.33;100.00
36788;BME280;22738;45.560;9.434;2022-09-03T05:41:06;99728.66;;;21.44;100.00
36788;BME280;22738;45.560;9.434;2022-09-03T05:47:47;99733.31;;;21.72;100.00
36788;BME280;22738;45.560;9.434;2022-09-03T05:54:28;99733.78;;;21.92;100.00
36788;BME280;22738;45.560;9.434;2022-09-03T06:01:15;99730.91;;;22.32;100.00
36788;BME280;22738;45.560;9.434;2022-09-03T06:07:57;99739.16;;;22.83;100.00
36788;BME280;22738;45.560;9.434;2022-09-03T06:14:37;99738.06;;;22.92;100.00
36788;BME280;22738;45.560;9.434;2022-09-03T06:21:19;99724.97;;;23.13;100.00
36788;BME280;22738;45.560;9.434;2022-09-03T06:28:00;99731.41;;;22.96;100.00
36788;BME280;22738;45.560;9.434;2022-09-03T06:34:41;99737.38;;;22.52;100.00
36788;BME280;22738;45.560;9.434;2022-09-03T06:41:26;99749.19;;;22.64;100.00
36788;BME280;22738;45.560;9.434;2022-09-03T06:48:07;99742.66;;;22.75;100.00
36788;BME280;22738;45.560;9.434;2022-09-03T06:54:48;99746.00;;;22.92;100.00
36788;BME280;22738;45.560;9.434;2022-09-03T07:01:31;99767.84;;;23.23;100.00
36788;BME280;22738;45.560;9.434;2022-09-03T07:08:12;99770.69;;;23.21;100.00
36788;BME280;22738;45.560;9.434;2022-09-03T07:14:53;99752.28;;;23.28;100.00
36788;BME280;22738;45.560;9.434;2022-09-03T07:21:35;99754.78;;;23.73;100.00
36788;BME280;22738;45.560;9.434;2022-09-03T07:28:17;99752.19;;;23.80;100.00
36788;BME280;22738;45.560;9.434;2022-09-03T07:34:58;99744.69;;;23.83;100.00
36788;BME280;22738;45.560;9.434;2022-09-03T07:41:40;99750.91;;;23.90;100.00
36788;BME280;22738;45.560;9.434;2022-09-03T07:48:25;99748.47;;;24.25;100.00
36788;BME280;22738;45.560;9.434;2022-09-03T07:55:07;99752.59;;;24.69;100.00
36788;BME280;22738;45.560;9.434;2022-09-03T08:01:49;99762.41;;;28.35;81.79
36788;BME280;22738;45.560;9.434;2022-09-03T08:08:31;99782.41;;;27.23;94.16
36788;BME280;22738;45.560;9.434;2022-09-03T08:15:16;99801.34;;;25.60;100.00
36788;BME280;22738;45.560;9.434;2022-09-03T08:21:59;99815.13;;;25.21;100.00
36788;BME280;22738;45.560;9.434;2022-09-03T08:28:40;99828.22;;;25.78;100.00
36788;BME280;22738;45.560;9.434;2022-09-03T08:35:22;99832.28;;;25.25;100.00
36788;BME280;22738;45.560;9.434;2022-09-03T08:42:48;99834.63;;;24.92;100.00
36788;BME280;22738;45.560;9.434;2022-09-03T08:56:30;99855.94;;;24.77;100.00
36788;BME280;22738;45.560;9.434;2022-09-03T09:10:21;99846.13;;;25.20;100.00
36788;BME280;22738;45.560;9.434;2022-09-03T09:24:08;99856.75;;;25.20;100.00
36788;BME280;22738;45.560;9.434;2022-09-03T09:30:54;99856.06;;;24.91;100.00
36788;BME280;22738;45.560;9.434;2022-09-03T09:37:54;99853.53;;;24.68;100.00
36788;BME280;22738;45.560;9.434;2022-09-03T09:44:36;99848.75;;;24.57;100.00
36788;BME280;22738;45.560;9.434;2022-09-03T09:51:21;99845.53;;;24.61;100.00
36788;BME280;22738;45.560;9.434;2022-09-03T09:58:06;99850.81;;;24.97;100.00
36788;BME280;22738;45.560;9.434;2022-09-03T10:04:49;99852.31;;;25.06;100.00
36788;BME280;22738;45.560;9.434;2022-09-03T10:11:31;99855.59;;;25.29;100.00
36788;BME280;22738;45.560;9.434;2022-09-03T10:18:18;99845.94;;;25.22;100.00
36788;BME280;22738;45.560;9.434;2022-09-03T10:25:09;99851.94;;;25.09;100.00
36788;BME280;22738;45.560;9.434;2022-09-03T10:38:58;99856.00;;;25.82;100.00
36788;BME280;22738;45.560;9.434;2022-09-03T11:06:49;99842.19;;;25.93;100.00
36788;BME280;22738;45.560;9.434;2022-09-03T11:13:36;99838.28;;;25.33;100.00
36788;BME280;22738;45.560;9.434;2022-09-03T11:20:22;99833.50;;;25.22;100.00
36788;BME280;22738;45.560;9.434;2022-09-03T11:34:13;99826.69;;;25.13;100.00
36788;BME280;22738;45.560;9.434;2022-09-03T11:41:09;99820.63;;;25.47;100.00
36788;BME280;22738;45.560;9.434;2022-09-03T11:47:53;99827.50;;;26.03;100.00
36788;BME280;22738;45.560;9.434;2022-09-03T11:54:44;99821.97;;;26.39;100.00
36788;BME280;22738;45.560;9.434;2022-09-03T12:01:26;99821.91;;;26.26;100.00
36788;BME280;22738;45.560;9.434;2022-09-03T12:08:21;99810.13;;;26.42;100.00
36788;BME280;22738;45.560;9.434;2022-09-03T12:22:23;99799.44;;;26.35;100.00
36788;BME280;22738;45.560;9.434;2022-09-03T12:29:05;99797.88;;;26.60;100.00
36788;BME280;22738;45.560;9.434;2022-09-03T12:35:56;99797.16;;;26.86;100.00
36788;BME280;22738;45.560;9.434;2022-09-03T12:42:38;99789.38;;;26.98;100.00
36788;BME280;22738;45.560;9.434;2022-09-03T12:49:19;99801.75;;;26.51;100.00
36788;BME280;22738;45.560;9.434;2022-09-03T12:56:01;99801.63;;;26.92;100.00
36788;BME280;22738;45.560;9.434;2022-09-03T13:09:47;99795.31;;;27.13;100.00
36788;BME280;22738;45.560;9.434;2022-09-03T13:23:30;99776.47;;;27.47;99.16
36788;BME280;22738;45.560;9.434;2022-09-03T13:30:19;99757.22;;;27.32;94.80
36788;BME280;22738;45.560;9.434;2022-09-03T13:43:56;99766.84;;;27.07;100.00
36788;BME280;22738;45.560;9.434;2022-09-03T13:58:17;99745.97;;;27.17;100.00
36788;BME280;22738;45.560;9.434;2022-09-03T14:05:30;99746.59;;;27.06;100.00
36788;BME280;22738;45.560;9.434;2022-09-03T14:25:56;99725.50;;;26.98;100.00
36788;BME280;22738;45.560;9.434;2022-09-03T14:39:53;99710.31;;;27.37;100.00
36788;BME280;22738;45.560;9.434;2022-09-03T14:47:21;99715.28;;;27.14;100.00
36788;BME280;22738;45.560;9.434;2022-09-03T15:07:49;99701.34;;;27.06;100.00
36788;BME280;22738;45.560;9.434;2022-09-03T15:14:52;99698.09;;;26.77;100.00
36788;BME280;22738;45.560;9.434;2022-09-03T15:29:09;99695.59;;;26.56;100.00
36788;BME280;22738;45.560;9.434;2022-09-03T15:43:28;99695.22;;;26.59;100.00
36788;BME280;22738;45.560;9.434;2022-09-03T15:50:35;99691.09;;;26.70;100.00
36788;BME280;22738;45.560;9.434;2022-09-03T16:04:26;99696.44;;;26.76;100.00
36788;BME280;22738;45.560;9.434;2022-09-03T16:11:23;99694.00;;;26.81;100.00
36788;BME280;22738;45.560;9.434;2022-09-03T16:25:22;99701.53;;;26.58;100.00
36788;BME280;22738;45.560;9.434;2022-09-03T16:32:34;99697.44;;;26.49;100.00
36788;BME280;22738;45.560;9.434;2022-09-03T16:40:02;99708.06;;;26.56;100.00
36788;BME280;22738;45.560;9.434;2022-09-03T16:47:10;99716.41;;;26.20;100.00
36788;BME280;22738;45.560;9.434;2022-09-03T17:15:15;99734.69;;;25.89;100.00
36788;BME280;22738;45.560;9.434;2022-09-03T17:22:11;99731.72;;;25.64;100.00
36788;BME280;22738;45.560;9.434;2022-09-03T17:29:19;99729.97;;;25.43;100.00
36788;BME280;22738;45.560;9.434;2022-09-03T17:36:14;99740.03;;;25.27;100.00
36788;BME280;22738;45.560;9.434;2022-09-03T18:03:53;99768.50;;;24.69;100.00
36788;BME280;22738;45.560;9.434;2022-09-03T18:10:43;99765.09;;;24.54;100.00
36788;BME280;22738;45.560;9.434;2022-09-03T18:24:43;99777.97;;;24.36;100.00
36788;BME280;22738;45.560;9.434;2022-09-03T18:31:45;99792.13;;;24.29;100.00
36788;BME280;22738;45.560;9.434;2022-09-03T18:38:45;99799.84;;;24.24;100.00
36788;BME280;22738;45.560;9.434;2022-09-03T18:45:50;99817.56;;;24.08;100.00
36788;BME280;22738;45.560;9.434;2022-09-03T18:52:58;99826.69;;;23.91;100.00
36788;BME280;22738;45.560;9.434;2022-09-03T19:00:17;99844.38;;;23.76;100.00
36788;BME280;22738;45.560;9.434;2022-09-03T19:07:37;99859.72;;;23.66;100.00
36788;BME280;22738;45.560;9.434;2022-09-03T19:28:49;99868.22;;;23.76;100.00
36788;BME280;22738;45.560;9.434;2022-09-03T19:36:19;99868.66;;;23.65;100.00
36788;BME280;22738;45.560;9.434;2022-09-03T19:51:03;99889.88;;;23.20;100.00
36788;BME280;22738;45.560;9.434;2022-09-03T19:58:07;99897.22;;;22.87;100.00
36788;BME280;22738;45.560;9.434;2022-09-03T20:05:16;99905.41;;;22.69;100.00
36788;BME280;22738;45.560;9.434;2022-09-03T20:12:18;99914.22;;;22.62;100.00
36788;BME280;22738;45.560;9.434;2022-09-03T20:19:26;99911.41;;;22.55;100.00
36788;BME280;22738;45.560;9.434;2022-09-03T20:54:29;99930.75;;;21.93;100.00
36788;BME280;22738;45.560;9.434;2022-09-03T21:01:22;99932.38;;;22.10;100.00
36788;BME280;22738;45.560;9.434;2022-09-03T21:22:20;99930.75;;;21.93;100.00
36788;BME280;22738;45.560;9.434;2022-09-03T21:29:22;99945.59;;;21.86;100.00
36788;BME280;22738;45.560;9.434;2022-09-03T21:36:11;99947.59;;;21.84;100.00
36788;BME280;22738;45.560;9.434;2022-09-03T21:43:18;99948.88;;;21.80;100.00
36788;BME280;22738;45.560;9.434;2022-09-03T22:03:34;99943.63;;;21.40;100.00
36788;BME280;22738;45.560;9.434;2022-09-03T22:10:21;99947.25;;;21.39;100.00
36788;BME280;22738;45.560;9.434;2022-09-03T22:17:10;99945.09;;;21.34;100.00
36788;BME280;22738;45.560;9.434;2022-09-03T22:24:20;99943.44;;;21.33;100.00
36788;BME280;22738;45.560;9.434;2022-09-03T22:31:18;99935.38;;;21.35;100.00
36788;BME280;22738;45.560;9.434;2022-09-03T22:38:32;99937.97;;;21.26;100.00
36788;BME280;22738;45.560;9.434;2022-09-03T22:45:49;99930.41;;;21.15;100.00
36788;BME280;22738;45.560;9.434;2022-09-03T22:52:43;99935.00;;;21.13;100.00
36788;BME280;22738;45.560;9.434;2022-09-03T22:59:34;99935.19;;;21.12;100.00
36788;BME280;22738;45.560;9.434;2022-09-03T23:06:33;99940.94;;;21.15;100.00
36788;BME280;22738;45.560;9.434;2022-09-03T23:13:19;99921.66;;;21.07;100.00
36788;BME280;22738;45.560;9.434;2022-09-03T23:20:06;99928.97;;;20.79;100.00
36788;BME280;22738;45.560;9.434;2022-09-03T23:26:50;99925.69;;;20.77;100.00
36788;BME280;22738;45.560;9.434;2022-09-03T23:33:33;99936.41;;;20.84;100.00
36788;BME280;22738;45.560;9.434;2022-09-03T23:40:37;99943.81;;;20.88;100.00
